<?xml version="1.0" encoding="UTF-8" standalone="no" ?><gpx xmlns="http://www.topografix.com/GPX/1/1" xmlns:gpxx="http://www.garmin.com/xmlschemas/GpxExtensions/v3" xmlns:gpxtrkx="http://www.garmin.com/xmlschemas/TrackStatsExtension/v1" xmlns:wptx1="http://www.garmin.com/xmlschemas/WaypointExtension/v1" xmlns:gpxtpx="http://www.garmin.com/xmlschemas/TrackPointExtension/v1" creator="Oregon 700" version="1.1" xmlns:xsi="http://www.w3.org/2001/XMLSchema-instance" xsi:schemaLocation="http://www.topografix.com/GPX/1/1 http://www.topografix.com/GPX/1/1/gpx.xsd http://www.garmin.com/xmlschemas/GpxExtensions/v3 http://www8.garmin.com/xmlschemas/GpxExtensionsv3.xsd http://www.garmin.com/xmlschemas/TrackStatsExtension/v1 http://www8.garmin.com/xmlschemas/TrackStatsExtension.xsd http://www.garmin.com/xmlschemas/WaypointExtension/v1 http://www8.garmin.com/xmlschemas/WaypointExtensionv1.xsd http://www.garmin.com/xmlschemas/TrackPointExtension/v1 http://www.garmin.com/xmlschemas/TrackPointExtensionv1.xsd"><metadata><link href="http://www.garmin.com"><text>Garmin International</text></link><time>2022-01-19T16:38:17Z</time></metadata><trk><name>Current Track: 19 JAN 2022 09:54</name><extensions><gpxx:TrackExtension><gpxx:DisplayColor>Cyan</gpxx:DisplayColor></gpxx:TrackExtension><gpxtrkx:TrackStatsExtension><gpxtrkx:Distance>4569.000</gpxtrkx:Distance><gpxtrkx:TimerTime>7141</gpxtrkx:TimerTime><gpxtrkx:TotalElapsedTime>24223</gpxtrkx:TotalElapsedTime><gpxtrkx:MovingTime>5920</gpxtrkx:MovingTime><gpxtrkx:StoppedTime>1221</gpxtrkx:StoppedTime><gpxtrkx:MovingSpeed>0.772</gpxtrkx:MovingSpeed><gpxtrkx:MaxSpeed>1.209</gpxtrkx:MaxSpeed><gpxtrkx:MaxElevation>49.832</gpxtrkx:MaxElevation><gpxtrkx:MinElevation>7.751</gpxtrkx:MinElevation><gpxtrkx:Ascent>117.000</gpxtrkx:Ascent><gpxtrkx:Descent>116.403</gpxtrkx:Descent><gpxtrkx:AvgAscentRate>0.057</gpxtrkx:AvgAscentRate><gpxtrkx:MaxAscentRate>0.093</gpxtrkx:MaxAscentRate><gpxtrkx:AvgDescentRate>0.053</gpxtrkx:AvgDescentRate><gpxtrkx:MaxDescentRate>-0.112</gpxtrkx:MaxDescentRate><gpxtrkx:Calories>212</gpxtrkx:Calories></gpxtrkx:TrackStatsExtension></extensions><trkseg><trkpt lat="51.9213477429" lon="-1.8635106459"><ele>22.74</ele><time>2022-01-19T09:54:35Z</time></trkpt><trkpt lat="51.9213619921" lon="-1.8635072093"><ele>22.72</ele><time>2022-01-19T09:54:58Z</time></trkpt><trkpt lat="51.9213601481" lon="-1.8635055330"><ele>22.76</ele><time>2022-01-19T09:55:31Z</time></trkpt><trkpt lat="51.9213680271" lon="-1.8634978216"><ele>22.79</ele><time>2022-01-19T09:56:02Z</time></trkpt><trkpt lat="51.9213392772" lon="-1.8634379748"><ele>22.79</ele><time>2022-01-19T09:56:31Z</time></trkpt><trkpt lat="51.9212962780" lon="-1.8635767791"><ele>22.79</ele><time>2022-01-19T09:56:48Z</time></trkpt><trkpt lat="51.9213000499" lon="-1.8637825549"><ele>22.79</ele><time>2022-01-19T09:57:04Z</time></trkpt><trkpt lat="51.9213640038" lon="-1.8640216906"><ele>22.79</ele><time>2022-01-19T09:57:27Z</time></trkpt><trkpt lat="51.9214437157" lon="-1.8642503489"><ele>22.79</ele><time>2022-01-19T09:57:43Z</time></trkpt><trkpt lat="51.9215711206" lon="-1.8642998021"><ele>22.79</ele><time>2022-01-19T09:58:03Z</time></trkpt><trkpt lat="51.9217219949" lon="-1.8642027397"><ele>22.79</ele><time>2022-01-19T09:58:22Z</time></trkpt><trkpt lat="51.9217497390" lon="-1.8641809467"><ele>22.79</ele><time>2022-01-19T09:58:25Z</time></trkpt><trkpt lat="51.9218543451" lon="-1.8641257938"><ele>23.01</ele><time>2022-01-19T09:58:40Z</time></trkpt><trkpt lat="51.9219839294" lon="-1.8640982173"><ele>22.33</ele><time>2022-01-19T09:58:56Z</time></trkpt><trkpt lat="51.9221393298" lon="-1.8640550505"><ele>21.76</ele><time>2022-01-19T09:59:14Z</time></trkpt><trkpt lat="51.9222663157" lon="-1.8640342634"><ele>20.83</ele><time>2022-01-19T09:59:31Z</time></trkpt><trkpt lat="51.9223658089" lon="-1.8640088663"><ele>20.44</ele><time>2022-01-19T09:59:47Z</time></trkpt><trkpt lat="51.9224929623" lon="-1.8639442418"><ele>19.26</ele><time>2022-01-19T10:00:06Z</time></trkpt><trkpt lat="51.9226507936" lon="-1.8639096245"><ele>18.18</ele><time>2022-01-19T10:00:26Z</time></trkpt><trkpt lat="51.9228377100" lon="-1.8638719898"><ele>16.51</ele><time>2022-01-19T10:00:46Z</time></trkpt><trkpt lat="51.9229781069" lon="-1.8638252188"><ele>15.71</ele><time>2022-01-19T10:01:02Z</time></trkpt><trkpt lat="51.9230096228" lon="-1.8638637755"><ele>15.26</ele><time>2022-01-19T10:01:23Z</time></trkpt><trkpt lat="51.9230486825" lon="-1.8638251349"><ele>15.46</ele><time>2022-01-19T10:01:42Z</time></trkpt><trkpt lat="51.9231066853" lon="-1.8637394719"><ele>15.28</ele><time>2022-01-19T10:02:00Z</time></trkpt><trkpt lat="51.9231571443" lon="-1.8635588419"><ele>14.66</ele><time>2022-01-19T10:02:23Z</time></trkpt><trkpt lat="51.9232283905" lon="-1.8633681536"><ele>14.29</ele><time>2022-01-19T10:02:39Z</time></trkpt><trkpt lat="51.9233205076" lon="-1.8631767109"><ele>14.04</ele><time>2022-01-19T10:03:00Z</time></trkpt><trkpt lat="51.9234342501" lon="-1.8630394153"><ele>12.71</ele><time>2022-01-19T10:03:20Z</time></trkpt><trkpt lat="51.9234412070" lon="-1.8629506510"><ele>11.53</ele><time>2022-01-19T10:03:37Z</time></trkpt><trkpt lat="51.9235198293" lon="-1.8627504073"><ele>9.57</ele><time>2022-01-19T10:04:00Z</time></trkpt><trkpt lat="51.9235798437" lon="-1.8626264390"><ele>9.06</ele><time>2022-01-19T10:04:21Z</time></trkpt><trkpt lat="51.9236009661" lon="-1.8625430390"><ele>8.83</ele><time>2022-01-19T10:04:38Z</time></trkpt><trkpt lat="51.9236307219" lon="-1.8624785822"><ele>8.25</ele><time>2022-01-19T10:05:02Z</time></trkpt><trkpt lat="51.9236106053" lon="-1.8624491617"><ele>7.90</ele><time>2022-01-19T10:05:24Z</time></trkpt><trkpt lat="51.9236127008" lon="-1.8624477368"><ele>8.72</ele><time>2022-01-19T10:05:37Z</time></trkpt><trkpt lat="51.9236238487" lon="-1.8624519277"><ele>8.21</ele><time>2022-01-19T10:06:02Z</time></trkpt><trkpt lat="51.9236254413" lon="-1.8624493293"><ele>4.04</ele><time>2022-01-19T10:06:26Z</time></trkpt><trkpt lat="51.9236271176" lon="-1.8624525145"><ele>-0.19</ele><time>2022-01-19T10:06:28Z</time></trkpt><trkpt lat="51.9236246031" lon="-1.8624563701"><ele>-1.10</ele><time>2022-01-19T10:06:30Z</time></trkpt><trkpt lat="51.9236230105" lon="-1.8624570407"><ele>2.64</ele><time>2022-01-19T10:06:32Z</time></trkpt><trkpt lat="51.9236269500" lon="-1.8624565378"><ele>5.95</ele><time>2022-01-19T10:06:35Z</time></trkpt><trkpt lat="51.9236412831" lon="-1.8624403607"><ele>9.10</ele><time>2022-01-19T10:06:42Z</time></trkpt><trkpt lat="51.9236464798" lon="-1.8624512572"><ele>11.86</ele><time>2022-01-19T10:06:52Z</time></trkpt><trkpt lat="51.9236272853" lon="-1.8624426238"><ele>8.77</ele><time>2022-01-19T10:07:00Z</time></trkpt><trkpt lat="51.9236232620" lon="-1.8624413665"><ele>5.07</ele><time>2022-01-19T10:07:02Z</time></trkpt><trkpt lat="51.9236173946" lon="-1.8624431267"><ele>3.45</ele><time>2022-01-19T10:07:05Z</time></trkpt><trkpt lat="51.9236180652" lon="-1.8624347448"><ele>7.02</ele><time>2022-01-19T10:07:14Z</time></trkpt><trkpt lat="51.9235917460" lon="-1.8624658417"><ele>10.12</ele><time>2022-01-19T10:07:22Z</time></trkpt><trkpt lat="51.9236167241" lon="-1.8624544423"><ele>8.70</ele><time>2022-01-19T10:07:39Z</time></trkpt><trkpt lat="51.9236621540" lon="-1.8623895664"><ele>8.70</ele><time>2022-01-19T10:07:59Z</time></trkpt><trkpt lat="51.9237914868" lon="-1.8622175697"><ele>8.70</ele><time>2022-01-19T10:08:22Z</time></trkpt><trkpt lat="51.9238368329" lon="-1.8621437252"><ele>8.70</ele><time>2022-01-19T10:08:37Z</time></trkpt><trkpt lat="51.9238375872" lon="-1.8621388637"><ele>13.99</ele><time>2022-01-19T10:08:39Z</time></trkpt><trkpt lat="51.9238363300" lon="-1.8621386122"><ele>14.07</ele><time>2022-01-19T10:08:40Z</time></trkpt><trkpt lat="51.9238882139" lon="-1.8621068448"><ele>14.43</ele><time>2022-01-19T10:08:56Z</time></trkpt><trkpt lat="51.9240003638" lon="-1.8620024901"><ele>15.03</ele><time>2022-01-19T10:09:14Z</time></trkpt><trkpt lat="51.9240918104" lon="-1.8619314954"><ele>15.86</ele><time>2022-01-19T10:09:24Z</time></trkpt><trkpt lat="51.9242259208" lon="-1.8618261348"><ele>16.60</ele><time>2022-01-19T10:09:40Z</time></trkpt><trkpt lat="51.9244076405" lon="-1.8616985623"><ele>17.35</ele><time>2022-01-19T10:10:01Z</time></trkpt><trkpt lat="51.9246037770" lon="-1.8615731690"><ele>18.42</ele><time>2022-01-19T10:10:21Z</time></trkpt><trkpt lat="51.9247196149" lon="-1.8614871707"><ele>19.00</ele><time>2022-01-19T10:10:37Z</time></trkpt><trkpt lat="51.9248634484" lon="-1.8613972329"><ele>19.80</ele><time>2022-01-19T10:10:57Z</time></trkpt><trkpt lat="51.9249931164" lon="-1.8612989131"><ele>20.66</ele><time>2022-01-19T10:11:16Z</time></trkpt><trkpt lat="51.9251704775" lon="-1.8611901160"><ele>21.67</ele><time>2022-01-19T10:11:38Z</time></trkpt><trkpt lat="51.9252932724" lon="-1.8610928021"><ele>22.18</ele><time>2022-01-19T10:11:55Z</time></trkpt><trkpt lat="51.9254286401" lon="-1.8609942310"><ele>22.67</ele><time>2022-01-19T10:12:12Z</time></trkpt><trkpt lat="51.9255879801" lon="-1.8608690053"><ele>23.62</ele><time>2022-01-19T10:12:34Z</time></trkpt><trkpt lat="51.9257365912" lon="-1.8607947417"><ele>24.44</ele><time>2022-01-19T10:12:53Z</time></trkpt><trkpt lat="51.9258769043" lon="-1.8607006129"><ele>25.36</ele><time>2022-01-19T10:13:11Z</time></trkpt><trkpt lat="51.9260140322" lon="-1.8606229965"><ele>26.12</ele><time>2022-01-19T10:13:29Z</time></trkpt><trkpt lat="51.9261811674" lon="-1.8605235871"><ele>27.08</ele><time>2022-01-19T10:13:49Z</time></trkpt><trkpt lat="51.9262646511" lon="-1.8604405224"><ele>27.63</ele><time>2022-01-19T10:14:07Z</time></trkpt><trkpt lat="51.9263309520" lon="-1.8603971880"><ele>28.01</ele><time>2022-01-19T10:14:25Z</time></trkpt><trkpt lat="51.9263971690" lon="-1.8603504170"><ele>28.41</ele><time>2022-01-19T10:14:39Z</time></trkpt><trkpt lat="51.9264472090" lon="-1.8603154644"><ele>28.65</ele><time>2022-01-19T10:14:45Z</time></trkpt><trkpt lat="51.9265555870" lon="-1.8602215871"><ele>29.20</ele><time>2022-01-19T10:15:00Z</time></trkpt><trkpt lat="51.9266710058" lon="-1.8601541966"><ele>29.89</ele><time>2022-01-19T10:15:15Z</time></trkpt><trkpt lat="51.9267823175" lon="-1.8600765802"><ele>30.24</ele><time>2022-01-19T10:15:30Z</time></trkpt><trkpt lat="51.9268364646" lon="-1.8600443099"><ele>30.36</ele><time>2022-01-19T10:15:37Z</time></trkpt><trkpt lat="51.9269854110" lon="-1.8599764165"><ele>30.49</ele><time>2022-01-19T10:15:54Z</time></trkpt><trkpt lat="51.9270784501" lon="-1.8599138036"><ele>30.43</ele><time>2022-01-19T10:16:12Z</time></trkpt><trkpt lat="51.9270870835" lon="-1.8598842993"><ele>30.37</ele><time>2022-01-19T10:16:31Z</time></trkpt><trkpt lat="51.9271000754" lon="-1.8598854728"><ele>30.86</ele><time>2022-01-19T10:16:55Z</time></trkpt><trkpt lat="51.9271641970" lon="-1.8598093651"><ele>30.70</ele><time>2022-01-19T10:17:14Z</time></trkpt><trkpt lat="51.9271864090" lon="-1.8598002288"><ele>30.67</ele><time>2022-01-19T10:17:31Z</time></trkpt><trkpt lat="51.9271903485" lon="-1.8597818725"><ele>30.86</ele><time>2022-01-19T10:17:55Z</time></trkpt><trkpt lat="51.9272896741" lon="-1.8597926851"><ele>30.70</ele><time>2022-01-19T10:18:15Z</time></trkpt><trkpt lat="51.9273792766" lon="-1.8597959541"><ele>30.70</ele><time>2022-01-19T10:18:24Z</time></trkpt><trkpt lat="51.9274927676" lon="-1.8597257137"><ele>31.32</ele><time>2022-01-19T10:18:39Z</time></trkpt><trkpt lat="51.9276473299" lon="-1.8596416432"><ele>31.36</ele><time>2022-01-19T10:18:56Z</time></trkpt><trkpt lat="51.9276795164" lon="-1.8596294895"><ele>31.10</ele><time>2022-01-19T10:19:05Z</time></trkpt><trkpt lat="51.9277438894" lon="-1.8596009910"><ele>30.77</ele><time>2022-01-19T10:19:10Z</time></trkpt><trkpt lat="51.9279333204" lon="-1.8595486041"><ele>30.39</ele><time>2022-01-19T10:19:25Z</time></trkpt><trkpt lat="51.9279997889" lon="-1.8595222849"><ele>30.02</ele><time>2022-01-19T10:19:31Z</time></trkpt><trkpt lat="51.9280914031" lon="-1.8594978936"><ele>29.69</ele><time>2022-01-19T10:19:39Z</time></trkpt><trkpt lat="51.9281488191" lon="-1.8594834767"><ele>29.48</ele><time>2022-01-19T10:19:43Z</time></trkpt><trkpt lat="51.9282597117" lon="-1.8594160862"><ele>28.98</ele><time>2022-01-19T10:20:00Z</time></trkpt><trkpt lat="51.9284034614" lon="-1.8593860790"><ele>28.99</ele><time>2022-01-19T10:20:15Z</time></trkpt><trkpt lat="51.9285067264" lon="-1.8593660463"><ele>29.58</ele><time>2022-01-19T10:20:32Z</time></trkpt><trkpt lat="51.9286680780" lon="-1.8593033496"><ele>30.09</ele><time>2022-01-19T10:20:52Z</time></trkpt><trkpt lat="51.9286918826" lon="-1.8592963088"><ele>30.16</ele><time>2022-01-19T10:20:55Z</time></trkpt><trkpt lat="51.9288182817" lon="-1.8592697382"><ele>30.82</ele><time>2022-01-19T10:21:11Z</time></trkpt><trkpt lat="51.9289639592" lon="-1.8592461850"><ele>31.23</ele><time>2022-01-19T10:21:26Z</time></trkpt><trkpt lat="51.9290885981" lon="-1.8592302594"><ele>31.76</ele><time>2022-01-19T10:21:41Z</time></trkpt><trkpt lat="51.9292336889" lon="-1.8592363782"><ele>32.24</ele><time>2022-01-19T10:21:57Z</time></trkpt><trkpt lat="51.9293061923" lon="-1.8591935467"><ele>32.76</ele><time>2022-01-19T10:22:15Z</time></trkpt><trkpt lat="51.9293780252" lon="-1.8591570854"><ele>32.70</ele><time>2022-01-19T10:22:23Z</time></trkpt><trkpt lat="51.9295211043" lon="-1.8590689916"><ele>33.12</ele><time>2022-01-19T10:22:40Z</time></trkpt><trkpt lat="51.9296547119" lon="-1.8589947280"><ele>33.37</ele><time>2022-01-19T10:22:58Z</time></trkpt><trkpt lat="51.9297872297" lon="-1.8589142617"><ele>33.65</ele><time>2022-01-19T10:23:15Z</time></trkpt><trkpt lat="51.9298479147" lon="-1.8588786386"><ele>33.59</ele><time>2022-01-19T10:23:31Z</time></trkpt><trkpt lat="51.9298794307" lon="-1.8588671554"><ele>33.59</ele><time>2022-01-19T10:23:35Z</time></trkpt><trkpt lat="51.9300588034" lon="-1.8587685842"><ele>33.95</ele><time>2022-01-19T10:23:52Z</time></trkpt><trkpt lat="51.9301085081" lon="-1.8587372359"><ele>34.21</ele><time>2022-01-19T10:24:07Z</time></trkpt><trkpt lat="51.9301672652" lon="-1.8587219808"><ele>34.28</ele><time>2022-01-19T10:24:25Z</time></trkpt><trkpt lat="51.9303177204" lon="-1.8586361501"><ele>34.46</ele><time>2022-01-19T10:24:42Z</time></trkpt><trkpt lat="51.9303748850" lon="-1.8585923966"><ele>34.65</ele><time>2022-01-19T10:24:56Z</time></trkpt><trkpt lat="51.9304034673" lon="-1.8585886247"><ele>34.29</ele><time>2022-01-19T10:25:21Z</time></trkpt><trkpt lat="51.9304064009" lon="-1.8585666642"><ele>34.29</ele><time>2022-01-19T10:25:50Z</time></trkpt><trkpt lat="51.9304122683" lon="-1.8585271854"><ele>34.29</ele><time>2022-01-19T10:26:11Z</time></trkpt><trkpt lat="51.9304024614" lon="-1.8584754691"><ele>34.29</ele><time>2022-01-19T10:26:24Z</time></trkpt><trkpt lat="51.9303144515" lon="-1.8584356550"><ele>34.29</ele><time>2022-01-19T10:26:40Z</time></trkpt><trkpt lat="51.9301248528" lon="-1.8583998643"><ele>33.87</ele><time>2022-01-19T10:27:00Z</time></trkpt><trkpt lat="51.9299533591" lon="-1.8584121857"><ele>33.42</ele><time>2022-01-19T10:27:21Z</time></trkpt><trkpt lat="51.9297466613" lon="-1.8583167158"><ele>32.65</ele><time>2022-01-19T10:27:46Z</time></trkpt><trkpt lat="51.9295646902" lon="-1.8582924921"><ele>31.77</ele><time>2022-01-19T10:28:07Z</time></trkpt><trkpt lat="51.9293734990" lon="-1.8582227547"><ele>30.71</ele><time>2022-01-19T10:28:32Z</time></trkpt><trkpt lat="51.9292035140" lon="-1.8580953497"><ele>29.74</ele><time>2022-01-19T10:28:53Z</time></trkpt><trkpt lat="51.9291118160" lon="-1.8580458127"><ele>29.20</ele><time>2022-01-19T10:29:12Z</time></trkpt><trkpt lat="51.9289506320" lon="-1.8579227664"><ele>28.16</ele><time>2022-01-19T10:29:31Z</time></trkpt><trkpt lat="51.9287877716" lon="-1.8577324133"><ele>27.19</ele><time>2022-01-19T10:29:51Z</time></trkpt><trkpt lat="51.9287525676" lon="-1.8576967064"><ele>26.94</ele><time>2022-01-19T10:29:55Z</time></trkpt><trkpt lat="51.9286433514" lon="-1.8575497717"><ele>26.18</ele><time>2022-01-19T10:30:13Z</time></trkpt><trkpt lat="51.9285175391" lon="-1.8573732488"><ele>25.15</ele><time>2022-01-19T10:30:31Z</time></trkpt><trkpt lat="51.9283762202" lon="-1.8572014198"><ele>24.39</ele><time>2022-01-19T10:30:50Z</time></trkpt><trkpt lat="51.9282431994" lon="-1.8570292555"><ele>23.44</ele><time>2022-01-19T10:31:09Z</time></trkpt><trkpt lat="51.9281181414" lon="-1.8568798900"><ele>22.07</ele><time>2022-01-19T10:31:30Z</time></trkpt><trkpt lat="51.9279544428" lon="-1.8566461187"><ele>20.26</ele><time>2022-01-19T10:31:56Z</time></trkpt><trkpt lat="51.9277846254" lon="-1.8564445339"><ele>18.82</ele><time>2022-01-19T10:32:20Z</time></trkpt><trkpt lat="51.9277008902" lon="-1.8563657440"><ele>17.51</ele><time>2022-01-19T10:32:41Z</time></trkpt><trkpt lat="51.9276376069" lon="-1.8563146144"><ele>16.53</ele><time>2022-01-19T10:32:48Z</time></trkpt><trkpt lat="51.9275651872" lon="-1.8562753033"><ele>15.74</ele><time>2022-01-19T10:33:09Z</time></trkpt><trkpt lat="51.9274820387" lon="-1.8562339805"><ele>14.92</ele><time>2022-01-19T10:33:30Z</time></trkpt><trkpt lat="51.9274379499" lon="-1.8561929092"><ele>14.31</ele><time>2022-01-19T10:33:49Z</time></trkpt><trkpt lat="51.9273822941" lon="-1.8561892211"><ele>13.33</ele><time>2022-01-19T10:34:11Z</time></trkpt><trkpt lat="51.9272177573" lon="-1.8561715353"><ele>11.62</ele><time>2022-01-19T10:34:32Z</time></trkpt><trkpt lat="51.9271911029" lon="-1.8561271112"><ele>11.57</ele><time>2022-01-19T10:34:59Z</time></trkpt><trkpt lat="51.9271600898" lon="-1.8561251834"><ele>11.84</ele><time>2022-01-19T10:35:25Z</time></trkpt><trkpt lat="51.9270016719" lon="-1.8562690169"><ele>11.71</ele><time>2022-01-19T10:35:44Z</time></trkpt><trkpt lat="51.9268576708" lon="-1.8563481420"><ele>11.71</ele><time>2022-01-19T10:36:05Z</time></trkpt><trkpt lat="51.9268382248" lon="-1.8563050590"><ele>11.71</ele><time>2022-01-19T10:36:31Z</time></trkpt><trkpt lat="51.9267394859" lon="-1.8563872855"><ele>11.71</ele><time>2022-01-19T10:36:55Z</time></trkpt><trkpt lat="51.9265361410" lon="-1.8565302808"><ele>11.71</ele><time>2022-01-19T10:37:16Z</time></trkpt><trkpt lat="51.9264248293" lon="-1.8566013593"><ele>15.40</ele><time>2022-01-19T10:37:31Z</time></trkpt><trkpt lat="51.9264237396" lon="-1.8566064723"><ele>15.61</ele><time>2022-01-19T10:37:32Z</time></trkpt><trkpt lat="51.9264082331" lon="-1.8566152733"><ele>15.80</ele><time>2022-01-19T10:37:34Z</time></trkpt><trkpt lat="51.9263509847" lon="-1.8567995913"><ele>16.74</ele><time>2022-01-19T10:37:55Z</time></trkpt><trkpt lat="51.9263134338" lon="-1.8570290040"><ele>17.02</ele><time>2022-01-19T10:38:13Z</time></trkpt><trkpt lat="51.9262815826" lon="-1.8572588358"><ele>17.66</ele><time>2022-01-19T10:38:27Z</time></trkpt><trkpt lat="51.9261407666" lon="-1.8574823812"><ele>18.68</ele><time>2022-01-19T10:38:46Z</time></trkpt><trkpt lat="51.9260262698" lon="-1.8575620931"><ele>19.10</ele><time>2022-01-19T10:39:05Z</time></trkpt><trkpt lat="51.9260033872" lon="-1.8575760070"><ele>19.06</ele><time>2022-01-19T10:39:07Z</time></trkpt><trkpt lat="51.9258956797" lon="-1.8576949462"><ele>19.74</ele><time>2022-01-19T10:39:25Z</time></trkpt><trkpt lat="51.9258458912" lon="-1.8577200919"><ele>19.04</ele><time>2022-01-19T10:39:47Z</time></trkpt><trkpt lat="51.9257290475" lon="-1.8579193298"><ele>18.88</ele><time>2022-01-19T10:40:08Z</time></trkpt><trkpt lat="51.9255762454" lon="-1.8579979520"><ele>18.37</ele><time>2022-01-19T10:40:26Z</time></trkpt><trkpt lat="51.9254746567" lon="-1.8581370916"><ele>17.61</ele><time>2022-01-19T10:40:45Z</time></trkpt><trkpt lat="51.9254143909" lon="-1.8581640813"><ele>17.33</ele><time>2022-01-19T10:41:02Z</time></trkpt><trkpt lat="51.9254060090" lon="-1.8581632432"><ele>17.28</ele><time>2022-01-19T10:41:28Z</time></trkpt><trkpt lat="51.9253909215" lon="-1.8581524305"><ele>17.88</ele><time>2022-01-19T10:41:54Z</time></trkpt><trkpt lat="51.9253739901" lon="-1.8581370916"><ele>18.82</ele><time>2022-01-19T10:42:20Z</time></trkpt><trkpt lat="51.9252128061" lon="-1.8581970222"><ele>16.51</ele><time>2022-01-19T10:42:37Z</time></trkpt><trkpt lat="51.9250331819" lon="-1.8582692742"><ele>16.44</ele><time>2022-01-19T10:42:56Z</time></trkpt><trkpt lat="51.9248964731" lon="-1.8583431188"><ele>16.13</ele><time>2022-01-19T10:43:15Z</time></trkpt><trkpt lat="51.9248635322" lon="-1.8583631516"><ele>16.72</ele><time>2022-01-19T10:43:40Z</time></trkpt><trkpt lat="51.9248390570" lon="-1.8583877105"><ele>16.00</ele><time>2022-01-19T10:44:06Z</time></trkpt><trkpt lat="51.9248246402" lon="-1.8583613075"><ele>17.42</ele><time>2022-01-19T10:44:34Z</time></trkpt><trkpt lat="51.9247669727" lon="-1.8583620619"><ele>14.22</ele><time>2022-01-19T10:44:49Z</time></trkpt><trkpt lat="51.9247640390" lon="-1.8583634868"><ele>13.94</ele><time>2022-01-19T10:44:50Z</time></trkpt><trkpt lat="51.9247561600" lon="-1.8583715335"><ele>17.28</ele><time>2022-01-19T10:44:54Z</time></trkpt><trkpt lat="51.9247199502" lon="-1.8583784066"><ele>14.77</ele><time>2022-01-19T10:45:08Z</time></trkpt><trkpt lat="51.9247020129" lon="-1.8584138621"><ele>16.99</ele><time>2022-01-19T10:45:14Z</time></trkpt><trkpt lat="51.9246529788" lon="-1.8584508263"><ele>14.73</ele><time>2022-01-19T10:45:20Z</time></trkpt><trkpt lat="51.9245882705" lon="-1.8584810011"><ele>16.97</ele><time>2022-01-19T10:45:27Z</time></trkpt><trkpt lat="51.9245482050" lon="-1.8585523311"><ele>16.97</ele><time>2022-01-19T10:45:43Z</time></trkpt><trkpt lat="51.9245401584" lon="-1.8585673347"><ele>16.97</ele><time>2022-01-19T10:45:44Z</time></trkpt><trkpt lat="51.9244251586" lon="-1.8588672392"><ele>14.66</ele><time>2022-01-19T10:46:04Z</time></trkpt><trkpt lat="51.9243645575" lon="-1.8591723405"><ele>14.66</ele><time>2022-01-19T10:46:26Z</time></trkpt><trkpt lat="51.9243110809" lon="-1.8594656233"><ele>15.28</ele><time>2022-01-19T10:46:46Z</time></trkpt><trkpt lat="51.9242419302" lon="-1.8597762566"><ele>15.75</ele><time>2022-01-19T10:47:08Z</time></trkpt><trkpt lat="51.9241890404" lon="-1.8600440584"><ele>15.97</ele><time>2022-01-19T10:47:28Z</time></trkpt><trkpt lat="51.9241307024" lon="-1.8603135366"><ele>15.99</ele><time>2022-01-19T10:47:48Z</time></trkpt><trkpt lat="51.9241096638" lon="-1.8605012912"><ele>15.70</ele><time>2022-01-19T10:48:05Z</time></trkpt><trkpt lat="51.9240784831" lon="-1.8607105874"><ele>15.74</ele><time>2022-01-19T10:48:21Z</time></trkpt><trkpt lat="51.9240541756" lon="-1.8609452806"><ele>15.63</ele><time>2022-01-19T10:48:37Z</time></trkpt><trkpt lat="51.9240203965" lon="-1.8611961510"><ele>15.56</ele><time>2022-01-19T10:48:56Z</time></trkpt><trkpt lat="51.9239341468" lon="-1.8614574987"><ele>15.52</ele><time>2022-01-19T10:49:15Z</time></trkpt><trkpt lat="51.9238756411" lon="-1.8617266417"><ele>14.37</ele><time>2022-01-19T10:49:32Z</time></trkpt><trkpt lat="51.9238035567" lon="-1.8619335908"><ele>14.04</ele><time>2022-01-19T10:49:51Z</time></trkpt><trkpt lat="51.9237641618" lon="-1.8620459083"><ele>12.83</ele><time>2022-01-19T10:50:11Z</time></trkpt><trkpt lat="51.9237717055" lon="-1.8621047493"><ele>12.83</ele><time>2022-01-19T10:50:31Z</time></trkpt><trkpt lat="51.9237809256" lon="-1.8621089403"><ele>12.62</ele><time>2022-01-19T10:50:50Z</time></trkpt><trkpt lat="51.9238212425" lon="-1.8620890751"><ele>12.21</ele><time>2022-01-19T10:51:10Z</time></trkpt><trkpt lat="51.9238019641" lon="-1.8620392028"><ele>12.26</ele><time>2022-01-19T10:51:28Z</time></trkpt><trkpt lat="51.9237786625" lon="-1.8620468304"><ele>12.34</ele><time>2022-01-19T10:51:46Z</time></trkpt><trkpt lat="51.9238281157" lon="-1.8620374426"><ele>12.58</ele><time>2022-01-19T10:52:09Z</time></trkpt><trkpt lat="51.9238364138" lon="-1.8620236125"><ele>12.58</ele><time>2022-01-19T10:52:33Z</time></trkpt><trkpt lat="51.9238061551" lon="-1.8619583175"><ele>12.58</ele><time>2022-01-19T10:52:56Z</time></trkpt><trkpt lat="51.9237796683" lon="-1.8619761709"><ele>12.58</ele><time>2022-01-19T10:53:20Z</time></trkpt><trkpt lat="51.9237460569" lon="-1.8619795237"><ele>12.58</ele><time>2022-01-19T10:53:47Z</time></trkpt><trkpt lat="51.9237876311" lon="-1.8620170746"><ele>12.58</ele><time>2022-01-19T10:54:08Z</time></trkpt><trkpt lat="51.9238084182" lon="-1.8620272167"><ele>12.58</ele><time>2022-01-19T10:54:29Z</time></trkpt><trkpt lat="51.9238085859" lon="-1.8620358501"><ele>12.58</ele><time>2022-01-19T10:54:53Z</time></trkpt><trkpt lat="51.9238038920" lon="-1.8620599061"><ele>12.58</ele><time>2022-01-19T10:55:12Z</time></trkpt><trkpt lat="51.9238052331" lon="-1.8620355148"><ele>12.58</ele><time>2022-01-19T10:55:34Z</time></trkpt><trkpt lat="51.9237884693" lon="-1.8620117102"><ele>12.58</ele><time>2022-01-19T10:55:52Z</time></trkpt><trkpt lat="51.9237935822" lon="-1.8620212656"><ele>12.58</ele><time>2022-01-19T10:56:12Z</time></trkpt><trkpt lat="51.9237033091" lon="-1.8620220199"><ele>12.58</ele><time>2022-01-19T10:56:43Z</time></trkpt><trkpt lat="51.9237277843" lon="-1.8620025739"><ele>12.58</ele><time>2022-01-19T10:57:00Z</time></trkpt><trkpt lat="51.9237503316" lon="-1.8620208465"><ele>12.58</ele><time>2022-01-19T10:57:24Z</time></trkpt><trkpt lat="51.9237375073" lon="-1.8620067649"><ele>12.58</ele><time>2022-01-19T10:57:44Z</time></trkpt><trkpt lat="51.9237347413" lon="-1.8620107044"><ele>12.58</ele><time>2022-01-19T10:58:04Z</time></trkpt><trkpt lat="51.9237606414" lon="-1.8620096147"><ele>12.58</ele><time>2022-01-19T10:58:26Z</time></trkpt><trkpt lat="51.9237673469" lon="-1.8619857263"><ele>12.58</ele><time>2022-01-19T10:58:46Z</time></trkpt><trkpt lat="51.9237671793" lon="-1.8619980477"><ele>12.58</ele><time>2022-01-19T10:59:02Z</time></trkpt><trkpt lat="51.9237691071" lon="-1.8620537873"><ele>12.58</ele><time>2022-01-19T10:59:44Z</time></trkpt><trkpt lat="51.9237842783" lon="-1.8620377779"><ele>12.58</ele><time>2022-01-19T11:00:13Z</time></trkpt><trkpt lat="51.9237835240" lon="-1.8619879894"><ele>12.58</ele><time>2022-01-19T11:00:35Z</time></trkpt><trkpt lat="51.9237605575" lon="-1.8619780149"><ele>12.58</ele><time>2022-01-19T11:01:12Z</time></trkpt><trkpt lat="51.9237574562" lon="-1.8619992211"><ele>12.58</ele><time>2022-01-19T11:01:34Z</time></trkpt><trkpt lat="51.9237769861" lon="-1.8620282225"><ele>12.58</ele><time>2022-01-19T11:01:55Z</time></trkpt><trkpt lat="51.9238012098" lon="-1.8620210979"><ele>12.58</ele><time>2022-01-19T11:02:17Z</time></trkpt><trkpt lat="51.9238037243" lon="-1.8620311562"><ele>12.58</ele><time>2022-01-19T11:02:40Z</time></trkpt><trkpt lat="51.9237947557" lon="-1.8620402925"><ele>12.58</ele><time>2022-01-19T11:03:01Z</time></trkpt><trkpt lat="51.9237764832" lon="-1.8620332517"><ele>12.58</ele><time>2022-01-19T11:03:25Z</time></trkpt><trkpt lat="51.9237823505" lon="-1.8620146438"><ele>12.58</ele><time>2022-01-19T11:03:47Z</time></trkpt><trkpt lat="51.9237904809" lon="-1.8619955331"><ele>12.58</ele><time>2022-01-19T11:04:04Z</time></trkpt><trkpt lat="51.9237993658" lon="-1.8619875703"><ele>12.58</ele><time>2022-01-19T11:04:31Z</time></trkpt><trkpt lat="51.9237515889" lon="-1.8620231934"><ele>12.58</ele><time>2022-01-19T11:05:00Z</time></trkpt><trkpt lat="51.9237299636" lon="-1.8620706350"><ele>12.58</ele><time>2022-01-19T11:05:18Z</time></trkpt><trkpt lat="51.9237260241" lon="-1.8620761670"><ele>12.58</ele><time>2022-01-19T11:05:20Z</time></trkpt><trkpt lat="51.9237503316" lon="-1.8621277157"><ele>12.58</ele><time>2022-01-19T11:05:37Z</time></trkpt><trkpt lat="51.9237089250" lon="-1.8622347526"><ele>12.58</ele><time>2022-01-19T11:05:59Z</time></trkpt><trkpt lat="51.9236651715" lon="-1.8622991256"><ele>12.58</ele><time>2022-01-19T11:06:15Z</time></trkpt><trkpt lat="51.9236315601" lon="-1.8624185678"><ele>12.58</ele><time>2022-01-19T11:06:34Z</time></trkpt><trkpt lat="51.9236064143" lon="-1.8624689430"><ele>12.58</ele><time>2022-01-19T11:06:54Z</time></trkpt><trkpt lat="51.9235407840" lon="-1.8625261076"><ele>12.58</ele><time>2022-01-19T11:07:16Z</time></trkpt><trkpt lat="51.9235236850" lon="-1.8625344895"><ele>7.74</ele><time>2022-01-19T11:07:24Z</time></trkpt><trkpt lat="51.9235211704" lon="-1.8625376746"><ele>7.62</ele><time>2022-01-19T11:07:25Z</time></trkpt><trkpt lat="51.9234928396" lon="-1.8626981881"><ele>8.35</ele><time>2022-01-19T11:07:43Z</time></trkpt><trkpt lat="51.9233776722" lon="-1.8629309535"><ele>10.78</ele><time>2022-01-19T11:08:08Z</time></trkpt><trkpt lat="51.9233559631" lon="-1.8630407564"><ele>12.43</ele><time>2022-01-19T11:08:30Z</time></trkpt><trkpt lat="51.9233060069" lon="-1.8631762080"><ele>13.65</ele><time>2022-01-19T11:08:47Z</time></trkpt><trkpt lat="51.9232418854" lon="-1.8632791378"><ele>14.34</ele><time>2022-01-19T11:09:07Z</time></trkpt><trkpt lat="51.9231911749" lon="-1.8634151760"><ele>14.81</ele><time>2022-01-19T11:09:31Z</time></trkpt><trkpt lat="51.9230874069" lon="-1.8636567425"><ele>14.45</ele><time>2022-01-19T11:09:52Z</time></trkpt><trkpt lat="51.9231008179" lon="-1.8637880031"><ele>16.83</ele><time>2022-01-19T11:10:10Z</time></trkpt><trkpt lat="51.9231370278" lon="-1.8638094608"><ele>17.84</ele><time>2022-01-19T11:10:33Z</time></trkpt><trkpt lat="51.9231748302" lon="-1.8638977222"><ele>18.38</ele><time>2022-01-19T11:10:53Z</time></trkpt><trkpt lat="51.9231641851" lon="-1.8639455829"><ele>19.19</ele><time>2022-01-19T11:11:13Z</time></trkpt><trkpt lat="51.9231019076" lon="-1.8641253747"><ele>19.99</ele><time>2022-01-19T11:11:28Z</time></trkpt><trkpt lat="51.9230766781" lon="-1.8642882351"><ele>21.05</ele><time>2022-01-19T11:11:45Z</time></trkpt><trkpt lat="51.9230436534" lon="-1.8644743133"><ele>22.13</ele><time>2022-01-19T11:12:02Z</time></trkpt><trkpt lat="51.9230175018" lon="-1.8645812664"><ele>23.35</ele><time>2022-01-19T11:12:18Z</time></trkpt><trkpt lat="51.9229517039" lon="-1.8647684343"><ele>24.26</ele><time>2022-01-19T11:12:35Z</time></trkpt><trkpt lat="51.9229284860" lon="-1.8648661673"><ele>25.62</ele><time>2022-01-19T11:12:53Z</time></trkpt><trkpt lat="51.9228937011" lon="-1.8649084959"><ele>26.54</ele><time>2022-01-19T11:13:13Z</time></trkpt><trkpt lat="51.9228415657" lon="-1.8650509045"><ele>28.02</ele><time>2022-01-19T11:13:35Z</time></trkpt><trkpt lat="51.9227747619" lon="-1.8652115855"><ele>28.40</ele><time>2022-01-19T11:13:55Z</time></trkpt><trkpt lat="51.9227563217" lon="-1.8652901240"><ele>29.76</ele><time>2022-01-19T11:14:20Z</time></trkpt><trkpt lat="51.9227844849" lon="-1.8653114978"><ele>29.71</ele><time>2022-01-19T11:14:45Z</time></trkpt><trkpt lat="51.9228434097" lon="-1.8653247412"><ele>29.73</ele><time>2022-01-19T11:15:04Z</time></trkpt><trkpt lat="51.9229011610" lon="-1.8653498031"><ele>28.85</ele><time>2022-01-19T11:15:21Z</time></trkpt><trkpt lat="51.9229945354" lon="-1.8654264975"><ele>28.52</ele><time>2022-01-19T11:15:40Z</time></trkpt><trkpt lat="51.9230884966" lon="-1.8654703349"><ele>28.43</ele><time>2022-01-19T11:15:59Z</time></trkpt><trkpt lat="51.9232663605" lon="-1.8655737676"><ele>27.65</ele><time>2022-01-19T11:16:22Z</time></trkpt><trkpt lat="51.9234322384" lon="-1.8657038547"><ele>25.81</ele><time>2022-01-19T11:16:47Z</time></trkpt><trkpt lat="51.9235778321" lon="-1.8658036832"><ele>23.90</ele><time>2022-01-19T11:17:10Z</time></trkpt><trkpt lat="51.9237051532" lon="-1.8659217842"><ele>23.21</ele><time>2022-01-19T11:17:31Z</time></trkpt><trkpt lat="51.9238588773" lon="-1.8660211097"><ele>22.65</ele><time>2022-01-19T11:17:57Z</time></trkpt><trkpt lat="51.9239459652" lon="-1.8660960440"><ele>22.23</ele><time>2022-01-19T11:18:17Z</time></trkpt><trkpt lat="51.9239813369" lon="-1.8661420606"><ele>22.55</ele><time>2022-01-19T11:18:37Z</time></trkpt><trkpt lat="51.9241208956" lon="-1.8662117142"><ele>22.55</ele><time>2022-01-19T11:18:56Z</time></trkpt><trkpt lat="51.9242802355" lon="-1.8662003148"><ele>22.55</ele><time>2022-01-19T11:19:18Z</time></trkpt><trkpt lat="51.9243568461" lon="-1.8661663681"><ele>26.71</ele><time>2022-01-19T11:19:36Z</time></trkpt><trkpt lat="51.9243627973" lon="-1.8661594950"><ele>26.65</ele><time>2022-01-19T11:19:37Z</time></trkpt><trkpt lat="51.9244404975" lon="-1.8661250453"><ele>27.58</ele><time>2022-01-19T11:19:58Z</time></trkpt><trkpt lat="51.9245828222" lon="-1.8660705630"><ele>28.19</ele><time>2022-01-19T11:20:22Z</time></trkpt><trkpt lat="51.9246616121" lon="-1.8660450820"><ele>29.36</ele><time>2022-01-19T11:20:44Z</time></trkpt><trkpt lat="51.9247645419" lon="-1.8660355266"><ele>29.27</ele><time>2022-01-19T11:20:59Z</time></trkpt><trkpt lat="51.9248042721" lon="-1.8661048450"><ele>29.92</ele><time>2022-01-19T11:21:22Z</time></trkpt><trkpt lat="51.9249429926" lon="-1.8660306651"><ele>29.56</ele><time>2022-01-19T11:21:38Z</time></trkpt><trkpt lat="51.9250817969" lon="-1.8660449982"><ele>28.87</ele><time>2022-01-19T11:21:57Z</time></trkpt><trkpt lat="51.9252167456" lon="-1.8660886679"><ele>27.63</ele><time>2022-01-19T11:22:16Z</time></trkpt><trkpt lat="51.9253247045" lon="-1.8662251253"><ele>26.36</ele><time>2022-01-19T11:22:35Z</time></trkpt><trkpt lat="51.9254044164" lon="-1.8663332518"><ele>24.81</ele><time>2022-01-19T11:23:04Z</time></trkpt><trkpt lat="51.9254382793" lon="-1.8664154783"><ele>25.28</ele><time>2022-01-19T11:23:25Z</time></trkpt><trkpt lat="51.9255335815" lon="-1.8665812723"><ele>23.90</ele><time>2022-01-19T11:23:42Z</time></trkpt><trkpt lat="51.9255807716" lon="-1.8666387722"><ele>24.29</ele><time>2022-01-19T11:24:01Z</time></trkpt><trkpt lat="51.9256738108" lon="-1.8667898141"><ele>22.68</ele><time>2022-01-19T11:24:20Z</time></trkpt><trkpt lat="51.9257568754" lon="-1.8669966795"><ele>22.66</ele><time>2022-01-19T11:24:37Z</time></trkpt><trkpt lat="51.9258458074" lon="-1.8671646528"><ele>21.88</ele><time>2022-01-19T11:24:58Z</time></trkpt><trkpt lat="51.9259499107" lon="-1.8673670758"><ele>20.60</ele><time>2022-01-19T11:25:25Z</time></trkpt><trkpt lat="51.9260153733" lon="-1.8675967399"><ele>19.09</ele><time>2022-01-19T11:25:50Z</time></trkpt><trkpt lat="51.9260660838" lon="-1.8678404018"><ele>18.40</ele><time>2022-01-19T11:26:12Z</time></trkpt><trkpt lat="51.9260905590" lon="-1.8681480177"><ele>17.09</ele><time>2022-01-19T11:26:39Z</time></trkpt><trkpt lat="51.9261426106" lon="-1.8683263846"><ele>16.18</ele><time>2022-01-19T11:27:08Z</time></trkpt><trkpt lat="51.9262129348" lon="-1.8685375247"><ele>14.91</ele><time>2022-01-19T11:27:34Z</time></trkpt><trkpt lat="51.9262782298" lon="-1.8687642552"><ele>14.05</ele><time>2022-01-19T11:27:57Z</time></trkpt><trkpt lat="51.9263205584" lon="-1.8689656723"><ele>12.65</ele><time>2022-01-19T11:28:18Z</time></trkpt><trkpt lat="51.9263572711" lon="-1.8691655807"><ele>12.91</ele><time>2022-01-19T11:28:39Z</time></trkpt><trkpt lat="51.9264643919" lon="-1.8691989407"><ele>12.57</ele><time>2022-01-19T11:29:01Z</time></trkpt><trkpt lat="51.9265183713" lon="-1.8692204822"><ele>12.87</ele><time>2022-01-19T11:29:22Z</time></trkpt><trkpt lat="51.9265496358" lon="-1.8692060653"><ele>13.52</ele><time>2022-01-19T11:29:39Z</time></trkpt><trkpt lat="51.9265358057" lon="-1.8691831827"><ele>13.12</ele><time>2022-01-19T11:30:01Z</time></trkpt><trkpt lat="51.9264352228" lon="-1.8693043850"><ele>13.91</ele><time>2022-01-19T11:30:16Z</time></trkpt><trkpt lat="51.9264168665" lon="-1.8696024455"><ele>15.09</ele><time>2022-01-19T11:30:37Z</time></trkpt><trkpt lat="51.9264456164" lon="-1.8698497955"><ele>17.29</ele><time>2022-01-19T11:30:59Z</time></trkpt><trkpt lat="51.9264488015" lon="-1.8699707463"><ele>19.19</ele><time>2022-01-19T11:31:20Z</time></trkpt><trkpt lat="51.9264589436" lon="-1.8701754324"><ele>20.53</ele><time>2022-01-19T11:31:37Z</time></trkpt><trkpt lat="51.9264701754" lon="-1.8702268973"><ele>22.27</ele><time>2022-01-19T11:32:01Z</time></trkpt><trkpt lat="51.9264705945" lon="-1.8703804538"><ele>22.49</ele><time>2022-01-19T11:32:20Z</time></trkpt><trkpt lat="51.9264445268" lon="-1.8704022467"><ele>25.10</ele><time>2022-01-19T11:32:38Z</time></trkpt><trkpt lat="51.9264635537" lon="-1.8705625087"><ele>25.42</ele><time>2022-01-19T11:32:58Z</time></trkpt><trkpt lat="51.9264400844" lon="-1.8707060069"><ele>27.61</ele><time>2022-01-19T11:33:18Z</time></trkpt><trkpt lat="51.9264082331" lon="-1.8707496766"><ele>28.54</ele><time>2022-01-19T11:33:26Z</time></trkpt><trkpt lat="51.9263380766" lon="-1.8708484154"><ele>30.23</ele><time>2022-01-19T11:33:47Z</time></trkpt><trkpt lat="51.9262714405" lon="-1.8707639258"><ele>31.36</ele><time>2022-01-19T11:34:07Z</time></trkpt><trkpt lat="51.9262462948" lon="-1.8710316438"><ele>32.72</ele><time>2022-01-19T11:34:23Z</time></trkpt><trkpt lat="51.9262177963" lon="-1.8711147085"><ele>33.10</ele><time>2022-01-19T11:34:40Z</time></trkpt><trkpt lat="51.9261298701" lon="-1.8712751381"><ele>34.04</ele><time>2022-01-19T11:35:03Z</time></trkpt><trkpt lat="51.9260727894" lon="-1.8713951670"><ele>36.17</ele><time>2022-01-19T11:35:24Z</time></trkpt><trkpt lat="51.9260213245" lon="-1.8714902177"><ele>36.80</ele><time>2022-01-19T11:35:34Z</time></trkpt><trkpt lat="51.9259094261" lon="-1.8716746196"><ele>38.01</ele><time>2022-01-19T11:35:54Z</time></trkpt><trkpt lat="51.9258318935" lon="-1.8718067184"><ele>39.38</ele><time>2022-01-19T11:36:10Z</time></trkpt><trkpt lat="51.9257366750" lon="-1.8719821516"><ele>41.27</ele><time>2022-01-19T11:36:29Z</time></trkpt><trkpt lat="51.9256402832" lon="-1.8721800484"><ele>43.39</ele><time>2022-01-19T11:36:51Z</time></trkpt><trkpt lat="51.9255635887" lon="-1.8723533023"><ele>45.08</ele><time>2022-01-19T11:37:09Z</time></trkpt><trkpt lat="51.9254551269" lon="-1.8724921905"><ele>46.42</ele><time>2022-01-19T11:37:31Z</time></trkpt><trkpt lat="51.9253903348" lon="-1.8724724930"><ele>47.39</ele><time>2022-01-19T11:37:52Z</time></trkpt><trkpt lat="51.9252915960" lon="-1.8724614289"><ele>46.81</ele><time>2022-01-19T11:38:11Z</time></trkpt><trkpt lat="51.9252184220" lon="-1.8724594172"><ele>48.55</ele><time>2022-01-19T11:38:20Z</time></trkpt><trkpt lat="51.9250034261" lon="-1.8723979779"><ele>48.50</ele><time>2022-01-19T11:38:45Z</time></trkpt><trkpt lat="51.9248997420" lon="-1.8723312579"><ele>49.20</ele><time>2022-01-19T11:39:01Z</time></trkpt><trkpt lat="51.9248050265" lon="-1.8720941339"><ele>48.72</ele><time>2022-01-19T11:39:21Z</time></trkpt><trkpt lat="51.9246673957" lon="-1.8718088139"><ele>48.37</ele><time>2022-01-19T11:39:46Z</time></trkpt><trkpt lat="51.9245715067" lon="-1.8715775572"><ele>47.21</ele><time>2022-01-19T11:40:10Z</time></trkpt><trkpt lat="51.9244622067" lon="-1.8713732902"><ele>46.07</ele><time>2022-01-19T11:40:30Z</time></trkpt><trkpt lat="51.9244511425" lon="-1.8712888006"><ele>45.03</ele><time>2022-01-19T11:40:47Z</time></trkpt><trkpt lat="51.9243615400" lon="-1.8710785825"><ele>44.81</ele><time>2022-01-19T11:41:09Z</time></trkpt><trkpt lat="51.9242502283" lon="-1.8708718009"><ele>43.67</ele><time>2022-01-19T11:41:33Z</time></trkpt><trkpt lat="51.9241409283" lon="-1.8706296477"><ele>42.14</ele><time>2022-01-19T11:41:57Z</time></trkpt><trkpt lat="51.9240938220" lon="-1.8703553919"><ele>41.12</ele><time>2022-01-19T11:42:17Z</time></trkpt><trkpt lat="51.9240208995" lon="-1.8700733408"><ele>39.22</ele><time>2022-01-19T11:42:41Z</time></trkpt><trkpt lat="51.9239554368" lon="-1.8698425032"><ele>38.09</ele><time>2022-01-19T11:43:03Z</time></trkpt><trkpt lat="51.9239098392" lon="-1.8697516434"><ele>37.65</ele><time>2022-01-19T11:43:17Z</time></trkpt><trkpt lat="51.9238489028" lon="-1.8695475440"><ele>36.32</ele><time>2022-01-19T11:43:35Z</time></trkpt><trkpt lat="51.9237808418" lon="-1.8693671655"><ele>35.35</ele><time>2022-01-19T11:43:53Z</time></trkpt><trkpt lat="51.9236743916" lon="-1.8691796623"><ele>33.67</ele><time>2022-01-19T11:44:13Z</time></trkpt><trkpt lat="51.9236621540" lon="-1.8691522535"><ele>33.39</ele><time>2022-01-19T11:44:15Z</time></trkpt><trkpt lat="51.9235254452" lon="-1.8689429574"><ele>31.53</ele><time>2022-01-19T11:44:37Z</time></trkpt><trkpt lat="51.9233904127" lon="-1.8687916640"><ele>31.54</ele><time>2022-01-19T11:44:57Z</time></trkpt><trkpt lat="51.9232085254" lon="-1.8685141392"><ele>31.30</ele><time>2022-01-19T11:45:24Z</time></trkpt><trkpt lat="51.9231371954" lon="-1.8684014864"><ele>30.93</ele><time>2022-01-19T11:45:40Z</time></trkpt><trkpt lat="51.9230335113" lon="-1.8682117201"><ele>30.86</ele><time>2022-01-19T11:45:59Z</time></trkpt><trkpt lat="51.9229288213" lon="-1.8681194354"><ele>31.29</ele><time>2022-01-19T11:46:18Z</time></trkpt><trkpt lat="51.9228291605" lon="-1.8678767793"><ele>32.06</ele><time>2022-01-19T11:46:39Z</time></trkpt><trkpt lat="51.9227149989" lon="-1.8676555809"><ele>33.72</ele><time>2022-01-19T11:47:01Z</time></trkpt><trkpt lat="51.9226038549" lon="-1.8673754577"><ele>36.21</ele><time>2022-01-19T11:47:27Z</time></trkpt><trkpt lat="51.9225238916" lon="-1.8672742043"><ele>36.96</ele><time>2022-01-19T11:47:46Z</time></trkpt><trkpt lat="51.9224363845" lon="-1.8670135271"><ele>36.74</ele><time>2022-01-19T11:48:05Z</time></trkpt><trkpt lat="51.9223192893" lon="-1.8667703681"><ele>36.52</ele><time>2022-01-19T11:48:24Z</time></trkpt><trkpt lat="51.9222586881" lon="-1.8665819429"><ele>36.78</ele><time>2022-01-19T11:48:41Z</time></trkpt><trkpt lat="51.9222045410" lon="-1.8663113751"><ele>36.05</ele><time>2022-01-19T11:48:59Z</time></trkpt><trkpt lat="51.9221705943" lon="-1.8661441561"><ele>34.57</ele><time>2022-01-19T11:49:19Z</time></trkpt><trkpt lat="51.9221587759" lon="-1.8659646995"><ele>34.57</ele><time>2022-01-19T11:49:36Z</time></trkpt><trkpt lat="51.9220749568" lon="-1.8656813074"><ele>32.98</ele><time>2022-01-19T11:49:58Z</time></trkpt><trkpt lat="51.9219254237" lon="-1.8653899524"><ele>30.80</ele><time>2022-01-19T11:50:26Z</time></trkpt><trkpt lat="51.9218058139" lon="-1.8651727773"><ele>29.72</ele><time>2022-01-19T11:50:46Z</time></trkpt><trkpt lat="51.9216810074" lon="-1.8650498986"><ele>28.05</ele><time>2022-01-19T11:51:03Z</time></trkpt><trkpt lat="51.9216731284" lon="-1.8650456239"><ele>28.08</ele><time>2022-01-19T11:51:04Z</time></trkpt><trkpt lat="51.9215747248" lon="-1.8648463860"><ele>27.60</ele><time>2022-01-19T11:51:25Z</time></trkpt><trkpt lat="51.9215579610" lon="-1.8645928334"><ele>27.28</ele><time>2022-01-19T11:51:48Z</time></trkpt><trkpt lat="51.9214805961" lon="-1.8643075973"><ele>25.92</ele><time>2022-01-19T11:52:08Z</time></trkpt><trkpt lat="51.9214181509" lon="-1.8641041685"><ele>25.56</ele><time>2022-01-19T11:52:25Z</time></trkpt><trkpt lat="51.9213255309" lon="-1.8638236262"><ele>23.74</ele><time>2022-01-19T11:52:49Z</time></trkpt><trkpt lat="51.9212758262" lon="-1.8635041080"><ele>24.55</ele><time>2022-01-19T11:53:08Z</time></trkpt><trkpt lat="51.9213154726" lon="-1.8633998372"><ele>23.39</ele><time>2022-01-19T11:53:24Z</time></trkpt><trkpt lat="51.9213262852" lon="-1.8634108175"><ele>23.68</ele><time>2022-01-19T11:53:38Z</time></trkpt></trkseg></trk></gpx>